Time;durP1;ratioP1;P1;durP2;ratioP2;P2;SDS_P1;SDS_P2;PMS_P1;PMS_P2;Temp;Humidity;BMP_temperature;BMP_pressure;BME280_temperature;BME280_humidity;BME280_pressure;Samples;Min_cycle;Max_cycle;Signal;HPM_P1;HPM_P2
2022/04/09 00:00:09;;;;;;;0.50;0.50;;;0.60;99.90;;;;;;4148627;28;20057;-76
2022/04/09 00:02:11;;;;;;;1.70;0.60;;;0.60;99.90;;;;;;4149182;28;20173;-79
2022/04/09 00:04:13;;;;;;;0.77;0.50;;;0.60;99.90;;;;;;4164465;28;20069;-77
2022/04/09 00:06:14;;;;;;;1.20;0.75;;;0.60;99.90;;;;;;4163565;28;20093;-77
2022/04/09 00:08:16;;;;;;;1.35;0.75;;;0.60;99.90;;;;;;4140166;28;20858;-77
2022/04/09 00:10:18;;;;;;;0.60;0.60;;;0.60;99.90;;;;;;4132560;28;20059;-78
2022/04/09 00:12:19;;;;;;;0.70;0.70;;;0.60;99.90;;;;;;4141441;28;20060;-79
2022/04/09 00:14:21;;;;;;;0.65;0.65;;;0.60;99.90;;;;;;4132126;28;20059;-77
2022/04/09 00:16:23;;;;;;;0.95;0.90;;;0.60;99.90;;;;;;4146368;28;20088;-78
2022/04/09 00:18:25;;;;;;;1.40;1.23;;;0.60;99.90;;;;;;4146495;28;20065;-78
2022/04/09 00:20:27;;;;;;;0.70;0.70;;;0.70;99.90;;;;;;4132210;28;20640;-78
2022/04/09 00:22:28;;;;;;;2.17;2.08;;;0.70;99.90;;;;;;4139650;28;20098;-79
2022/04/09 00:24:30;;;;;;;1.20;1.05;;;0.70;99.90;;;;;;4165524;28;20057;-78
2022/04/09 00:26:32;;;;;;;3.78;1.20;;;0.70;99.90;;;;;;4150880;28;20149;-80
2022/04/09 00:28:34;;;;;;;1.45;1.35;;;0.70;99.90;;;;;;4165086;28;20096;-78
2022/04/09 00:30:35;;;;;;;1.73;1.20;;;0.70;99.90;;;;;;4150244;28;20078;-79
2022/04/09 00:32:37;;;;;;;3.58;1.48;;;0.70;99.90;;;;;;4153088;28;20061;-78
2022/04/09 00:34:39;;;;;;;1.60;1.50;;;0.70;99.90;;;;;;4141539;28;20154;-78
2022/04/09 00:36:40;;;;;;;2.45;1.80;;;0.70;99.90;;;;;;4151127;28;20050;-80
2022/04/09 00:38:42;;;;;;;2.22;2.03;;;0.70;99.90;;;;;;4149691;28;20810;-82
2022/04/09 00:40:44;;;;;;;2.03;1.85;;;0.70;99.90;;;;;;4138786;28;20157;-77
2022/04/09 00:42:46;;;;;;;2.28;2.00;;;0.70;99.90;;;;;;4150106;28;20871;-78
2022/04/09 00:44:50;;;;;;;2.17;2.08;;;0.70;99.90;;;;;;4139099;28;20051;-78
2022/04/09 00:46:52;;;;;;;2.35;2.00;;;0.70;99.90;;;;;;4167282;28;20058;-78
2022/04/09 00:48:53;;;;;;;1.65;1.55;;;0.70;99.90;;;;;;4155283;28;20063;-78
2022/04/09 00:50:55;;;;;;;1.85;1.52;;;0.70;99.90;;;;;;4134253;28;20581;-76
2022/04/09 00:53:00;;;;;;;1.88;1.77;;;0.70;99.90;;;;;;4133546;28;20177;-77
2022/04/09 00:55:04;;;;;;;2.92;1.42;;;0.80;99.90;;;;;;4133558;28;20157;-78
2022/04/09 00:57:06;;;;;;;1.40;1.30;;;0.80;99.90;;;;;;4144837;28;20060;-77
2022/04/09 00:59:11;;;;;;;1.85;1.75;;;0.80;99.90;;;;;;4142176;28;20038;-76
2022/04/09 01:01:14;;;;;;;2.40;2.20;;;0.80;99.90;;;;;;4150612;28;20058;-76
2022/04/09 01:03:18;;;;;;;2.17;1.85;;;0.70;99.90;;;;;;4145619;28;20082;-77
2022/04/09 01:05:20;;;;;;;2.25;2.05;;;0.70;99.90;;;;;;4147136;28;20058;-75
2022/04/09 01:07:22;;;;;;;2.35;2.15;;;0.70;99.90;;;;;;4149088;28;20072;-77
2022/04/09 01:09:24;;;;;;;2.38;2.15;;;0.80;99.90;;;;;;4143546;28;20920;-76
2022/04/09 01:11:26;;;;;;;2.20;2.00;;;0.90;99.90;;;;;;4134381;28;20055;-77
2022/04/09 01:13:29;;;;;;;2.30;2.08;;;0.90;99.90;;;;;;4144180;28;20875;-77
2022/04/09 01:15:30;;;;;;;2.10;1.90;;;0.90;99.90;;;;;;4138476;28;20972;-77
2022/04/09 01:17:33;;;;;;;2.35;2.05;;;0.90;99.90;;;;;;4133430;28;20201;-77
2022/04/09 01:19:35;;;;;;;2.75;2.28;;;0.90;99.90;;;;;;4149707;28;20050;-76
2022/04/09 01:21:39;;;;;;;4.60;2.60;;;0.90;99.90;;;;;;4149039;28;20065;-76
2022/04/09 01:23:40;;;;;;;4.15;2.45;;;0.90;99.90;;;;;;4138349;28;20066;-76
2022/04/09 01:25:42;;;;;;;4.07;2.58;;;0.90;99.90;;;;;;4146921;28;20815;-77
2022/04/09 01:27:47;;;;;;;3.72;2.95;;;0.80;99.90;;;;;;4165552;28;20066;-76
2022/04/09 01:29:48;;;;;;;11.23;3.25;;;0.90;99.90;;;;;;4165581;28;20957;-77
2022/04/09 01:31:50;;;;;;;4.55;2.70;;;0.90;99.90;;;;;;4150420;28;20935;-76
2022/04/09 01:33:52;;;;;;;3.10;2.80;;;0.90;99.90;;;;;;4147869;28;20062;-76
2022/04/09 01:35:54;;;;;;;7.47;3.13;;;0.90;99.90;;;;;;4134212;28;20862;-77
2022/04/09 01:37:56;;;;;;;3.67;2.70;;;0.90;99.90;;;;;;4149942;28;20109;-76
2022/04/09 01:39:58;;;;;;;4.90;3.30;;;1.00;99.90;;;;;;4162191;28;20067;-76
2022/04/09 01:42:00;;;;;;;3.95;3.15;;;0.90;99.90;;;;;;4134227;28;20058;-75
2022/04/09 01:44:03;;;;;;;4.15;3.75;;;1.00;99.90;;;;;;4146532;28;20064;-77
2022/04/09 01:46:05;;;;;;;4.53;3.65;;;0.90;99.90;;;;;;4140818;28;20080;-76
2022/04/09 01:48:07;;;;;;;4.68;3.08;;;1.00;99.90;;;;;;4136924;28;20853;-77
2022/04/09 01:50:10;;;;;;;7.03;3.17;;;1.00;99.90;;;;;;4139670;28;20058;-77
2022/04/09 01:52:12;;;;;;;5.82;3.28;;;1.00;99.90;;;;;;4148264;28;20101;-77
2022/04/09 01:54:13;;;;;;;5.05;3.33;;;1.00;99.90;;;;;;4149665;28;20824;-77
2022/04/09 01:56:15;;;;;;;6.47;3.75;;;1.00;99.90;;;;;;4149706;28;20065;-77
2022/04/09 01:58:17;;;;;;;4.57;3.72;;;1.00;99.90;;;;;;4153212;28;20064;-77
2022/04/09 02:00:18;;;;;;;6.00;4.20;;;1.00;99.90;;;;;;4133412;28;20062;-78
2022/04/09 02:02:20;;;;;;;6.78;3.90;;;1.10;99.90;;;;;;4140677;28;20063;-77
2022/04/09 02:04:22;;;;;;;9.30;4.55;;;1.10;99.90;;;;;;4144073;28;20833;-76
2022/04/09 02:06:24;;;;;;;5.63;4.28;;;1.10;99.90;;;;;;4132091;28;20074;-76
2022/04/09 02:08:26;;;;;;;8.27;4.32;;;1.00;99.90;;;;;;4147962;28;20058;-76
2022/04/09 02:10:30;;;;;;;7.10;4.85;;;1.00;99.90;;;;;;4145043;28;20092;-76
2022/04/09 02:12:33;;;;;;;7.35;5.38;;;1.00;99.90;;;;;;4147418;28;20065;-76
2022/04/09 02:14:34;;;;;;;11.25;5.20;;;1.00;99.90;;;;;;4149441;28;20103;-77
2022/04/09 02:16:37;;;;;;;9.13;6.03;;;1.00;99.90;;;;;;4145625;28;20059;-77
2022/04/09 02:18:38;;;;;;;12.30;5.55;;;1.10;99.90;;;;;;4135477;28;20058;-77
2022/04/09 02:20:40;;;;;;;11.43;5.28;;;1.10;99.90;;;;;;4131700;28;20165;-75
2022/04/09 02:22:44;;;;;;;12.25;6.03;;;1.10;99.90;;;;;;4158586;28;20064;-76
2022/04/09 02:24:46;;;;;;;14.63;6.03;;;1.10;99.90;;;;;;4136264;28;20569;-76
2022/04/09 02:26:48;;;;;;;9.70;6.35;;;1.10;99.90;;;;;;4133071;28;20219;-76
2022/04/09 02:28:50;;;;;;;18.65;6.35;;;1.10;99.90;;;;;;4132850;28;20162;-76
2022/04/09 02:30:51;;;;;;;18.55;7.15;;;1.10;99.90;;;;;;4162714;28;20054;-76
2022/04/09 02:32:53;;;;;;;14.35;7.00;;;1.10;99.90;;;;;;4163893;28;20100;-76
2022/04/09 02:34:56;;;;;;;13.90;7.05;;;1.10;99.90;;;;;;4143271;28;20184;-76
2022/04/09 02:36:58;;;;;;;15.55;7.57;;;1.10;99.90;;;;;;4149062;28;20069;-77
2022/04/09 02:38:59;;;;;;;13.88;6.38;;;1.10;99.90;;;;;;4135433;28;20105;-77
2022/04/09 02:41:01;;;;;;;10.65;6.25;;;1.10;99.90;;;;;;4139613;28;20062;-76
2022/04/09 02:43:03;;;;;;;13.98;6.03;;;1.10;99.90;;;;;;4163827;28;20106;-77
2022/04/09 02:45:06;;;;;;;12.55;6.30;;;1.10;99.90;;;;;;4147683;28;20054;-76
2022/04/09 02:47:09;;;;;;;12.55;5.43;;;1.10;99.90;;;;;;4147145;28;20185;-76
2022/04/09 02:49:10;;;;;;;10.68;6.38;;;1.10;99.90;;;;;;4132563;28;20063;-77
2022/04/09 02:51:12;;;;;;;17.23;6.13;;;1.10;99.90;;;;;;4152894;28;20157;-76
2022/04/09 02:53:14;;;;;;;13.25;7.30;;;1.10;99.90;;;;;;4132626;28;20058;-76
2022/04/09 02:55:16;;;;;;;13.55;6.50;;;1.10;99.90;;;;;;4138013;28;20157;-76
2022/04/09 02:57:18;;;;;;;15.73;6.55;;;1.10;99.90;;;;;;4145573;28;20058;-77
2022/04/09 02:59:19;;;;;;;18.13;7.38;;;1.10;99.90;;;;;;4144007;28;20063;-77
2022/04/09 03:01:21;;;;;;;15.07;6.90;;;1.10;99.90;;;;;;4163836;28;20819;-77
2022/04/09 03:03:23;;;;;;;12.77;6.57;;;1.10;99.90;;;;;;4132496;28;20111;-77
2022/04/09 03:05:25;;;;;;;12.27;6.32;;;1.10;99.90;;;;;;4144295;28;20058;-76
2022/04/09 03:07:28;;;;;;;14.57;6.57;;;1.10;99.90;;;;;;4143042;28;20162;-76
2022/04/09 03:09:30;;;;;;;13.38;7.20;;;1.10;99.90;;;;;;4156175;28;20146;-78
2022/04/09 03:11:31;;;;;;;18.30;9.13;;;1.10;99.90;;;;;;4159693;28;20060;-77
2022/04/09 03:13:33;;;;;;;15.93;7.57;;;1.20;99.90;;;;;;4132692;28;20067;-77
2022/04/09 03:15:35;;;;;;;16.08;7.82;;;1.10;99.90;;;;;;4139891;28;20857;-78
2022/04/09 03:17:36;;;;;;;20.23;7.85;;;1.20;99.90;;;;;;4155231;28;20914;-78
2022/04/09 03:19:38;;;;;;;18.85;8.27;;;1.20;99.90;;;;;;4139545;28;20088;-77
2022/04/09 03:21:40;;;;;;;16.48;9.10;;;1.20;99.90;;;;;;4132666;28;20063;-76
2022/04/09 03:23:42;;;;;;;22.00;9.65;;;1.20;99.90;;;;;;4140309;28;20054;-77
2022/04/09 03:25:43;;;;;;;19.73;9.02;;;1.20;99.90;;;;;;4148829;28;20596;-77
2022/04/09 03:27:45;;;;;;;18.98;8.68;;;1.20;99.90;;;;;;4160062;28;20156;-77
2022/04/09 03:29:47;;;;;;;23.33;10.10;;;1.20;99.90;;;;;;4148075;28;20058;-77
2022/04/09 03:31:49;;;;;;;23.90;11.23;;;1.30;99.90;;;;;;4147947;28;20683;-77
2022/04/09 03:33:52;;;;;;;30.15;12.25;;;1.30;99.90;;;;;;4145968;28;20058;-76
2022/04/09 03:35:54;;;;;;;22.17;9.10;;;1.30;99.90;;;;;;4140514;28;20908;-76
2022/04/09 03:37:56;;;;;;;19.75;9.35;;;1.30;99.90;;;;;;4150966;28;20058;-77
2022/04/09 03:39:58;;;;;;;22.42;9.75;;;1.30;99.90;;;;;;4142939;28;20766;-76
2022/04/09 03:41:59;;;;;;;25.63;10.15;;;1.30;99.90;;;;;;4146800;28;20866;-76
2022/04/09 03:44:19;;;;;;;31.77;13.38;;;1.30;99.90;;;;;;4132064;28;20190;-77
2022/04/09 03:46:21;;;;;;;23.98;10.02;;;1.20;99.90;;;;;;4154860;28;20064;-76
2022/04/09 03:48:23;;;;;;;33.38;11.77;;;1.30;99.90;;;;;;4144283;28;20058;-77
2022/04/09 03:50:25;;;;;;;33.22;12.05;;;1.30;99.90;;;;;;4147523;28;20058;-76
2022/04/09 03:52:26;;;;;;;32.47;12.73;;;1.20;99.90;;;;;;4160912;28;20057;-76
2022/04/09 03:54:30;;;;;;;37.67;13.27;;;1.30;99.90;;;;;;4137721;28;20058;-76
2022/04/09 03:56:31;;;;;;;51.10;16.35;;;1.30;99.90;;;;;;4160589;28;21846;-76
2022/04/09 03:58:36;;;;;;;43.42;14.55;;;1.30;99.90;;;;;;4154243;28;20057;-76
2022/04/09 04:00:38;;;;;;;44.08;15.73;;;1.30;99.90;;;;;;4131735;28;20786;-76
2022/04/09 04:02:41;;;;;;;62.05;19.38;;;1.30;99.90;;;;;;4135497;28;20054;-75
2022/04/09 04:04:43;;;;;;;61.47;18.30;;;1.30;99.90;;;;;;4144993;28;20065;-76
2022/04/09 04:06:44;;;;;;;62.83;21.20;;;1.30;99.90;;;;;;4157332;28;20173;-75
2022/04/09 04:08:46;;;;;;;71.00;21.05;;;1.20;99.90;;;;;;4155438;28;20153;-76
2022/04/09 04:10:48;;;;;;;72.85;22.10;;;1.30;99.90;;;;;;4141731;28;20065;-77
2022/04/09 04:12:50;;;;;;;79.32;22.23;;;1.30;99.90;;;;;;4152381;28;20804;-77
2022/04/09 04:14:52;;;;;;;100.32;30.67;;;1.30;99.90;;;;;;4140473;28;20063;-75
2022/04/09 04:16:54;;;;;;;91.50;30.67;;;1.30;99.90;;;;;;4147464;28;20169;-76
2022/04/09 04:18:56;;;;;;;76.13;23.40;;;1.30;99.90;;;;;;4139769;28;20066;-76
2022/04/09 04:20:57;;;;;;;95.53;28.13;;;1.30;99.90;;;;;;4160725;28;20064;-77
2022/04/09 04:22:59;;;;;;;91.13;28.33;;;1.30;99.90;;;;;;4143260;28;20283;-77
2022/04/09 04:25:02;;;;;;;94.30;27.33;;;1.30;99.90;;;;;;4146166;28;20058;-76
2022/04/09 04:27:07;;;;;;;91.78;27.25;;;1.30;99.90;;;;;;4162699;28;20117;-77
2022/04/09 04:29:09;;;;;;;82.70;26.00;;;1.30;99.90;;;;;;4144783;28;20165;-76
2022/04/09 04:31:10;;;;;;;91.07;27.35;;;1.30;99.90;;;;;;4159677;28;20068;-77
2022/04/09 04:33:12;;;;;;;81.65;26.60;;;1.20;99.90;;;;;;4138252;28;20126;-77
2022/04/09 04:35:14;;;;;;;99.45;28.05;;;1.20;99.90;;;;;;4143073;28;20097;-78
2022/04/09 04:37:16;;;;;;;104.65;29.17;;;1.20;99.90;;;;;;4134155;28;20063;-77
2022/04/09 04:39:18;;;;;;;102.15;29.00;;;1.20;99.90;;;;;;4130239;28;20098;-77
2022/04/09 04:41:19;;;;;;;99.15;28.77;;;1.20;99.90;;;;;;4139127;28;20755;-77
2022/04/09 04:43:21;;;;;;;91.88;29.02;;;1.20;99.90;;;;;;4162493;28;20054;-77
2022/04/09 04:45:23;;;;;;;93.97;26.75;;;1.20;99.90;;;;;;4146324;28;20060;-77
2022/04/09 04:47:24;;;;;;;92.15;26.80;;;1.20;99.90;;;;;;4145573;28;20054;-76
2022/04/09 04:49:26;;;;;;;85.63;24.70;;;1.20;99.90;;;;;;4146394;28;20086;-77
2022/04/09 04:51:28;;;;;;;97.60;28.95;;;1.20;99.90;;;;;;4149762;28;20793;-77
2022/04/09 04:53:30;;;;;;;78.65;26.92;;;1.20;99.90;;;;;;4146636;28;20065;-76
2022/04/09 04:55:31;;;;;;;87.63;28.08;;;1.20;99.90;;;;;;4137041;28;20817;-76
2022/04/09 04:57:43;;;;;;;76.50;25.58;;;1.20;99.90;;;;;;4146897;28;20602;-76
2022/04/09 04:59:45;;;;;;;76.50;27.45;;;1.20;99.90;;;;;;4162411;28;20058;-76
2022/04/09 05:01:46;;;;;;;79.05;27.23;;;1.20;99.90;;;;;;4147159;28;20086;-76
2022/04/09 05:03:50;;;;;;;83.78;28.30;;;1.20;99.90;;;;;;4140770;28;20058;-77
2022/04/09 05:05:51;;;;;;;64.88;23.30;;;1.20;99.90;;;;;;4148943;28;20160;-76
2022/04/09 05:07:53;;;;;;;69.32;23.27;;;1.20;99.90;;;;;;4130636;28;20058;-75
2022/04/09 05:09:55;;;;;;;66.68;21.83;;;1.20;99.90;;;;;;4150879;28;20901;-78
2022/04/09 05:11:57;;;;;;;61.20;23.88;;;1.20;99.90;;;;;;4143410;28;20885;-76
2022/04/09 05:13:59;;;;;;;61.47;22.75;;;1.20;99.90;;;;;;4136261;28;20120;-75
2022/04/09 05:16:02;;;;;;;69.50;23.10;;;1.20;99.90;;;;;;4158685;28;21079;-75
2022/04/09 05:18:04;;;;;;;66.97;22.38;;;1.20;99.90;;;;;;4132363;28;20142;-75
2022/04/09 05:20:09;;;;;;;74.20;23.77;;;1.20;99.90;;;;;;4135639;28;20063;-75
2022/04/09 05:22:11;;;;;;;62.17;23.88;;;1.20;99.90;;;;;;4142002;28;20059;-75
2022/04/09 05:24:12;;;;;;;68.47;24.55;;;1.20;99.90;;;;;;4146939;28;20054;-75
2022/04/09 05:26:14;;;;;;;83.05;26.23;;;1.30;99.90;;;;;;4145995;28;20804;-75
2022/04/09 05:28:16;;;;;;;81.32;24.95;;;1.40;99.90;;;;;;4130560;28;20058;-76
2022/04/09 05:30:18;;;;;;;66.47;24.63;;;1.50;99.90;;;;;;4142343;28;20065;-75
2022/04/09 05:32:20;;;;;;;75.45;26.38;;;1.60;99.90;;;;;;4149594;28;20062;-75
2022/04/09 05:34:21;;;;;;;76.20;24.63;;;1.50;99.90;;;;;;4149578;28;20678;-76
2022/04/09 05:36:23;;;;;;;92.63;27.67;;;1.50;99.90;;;;;;4149080;28;20096;-76
2022/04/09 05:38:25;;;;;;;81.85;24.45;;;1.50;99.90;;;;;;4155693;28;20050;-76
2022/04/09 05:40:27;;;;;;;72.20;24.60;;;1.60;99.90;;;;;;4134976;28;20063;-75
2022/04/09 05:42:28;;;;;;;86.03;25.98;;;1.60;99.90;;;;;;4149577;28;20769;-75
2022/04/09 05:44:31;;;;;;;87.95;26.08;;;1.60;99.90;;;;;;4150977;28;20062;-75
2022/04/09 05:46:33;;;;;;;79.43;25.30;;;1.70;99.90;;;;;;4145685;28;20182;-74
2022/04/09 05:48:40;;;;;;;89.63;25.00;;;1.80;99.90;;;;;;4143718;28;20046;-75
2022/04/09 05:50:42;;;;;;;81.90;24.20;;;1.80;99.90;;;;;;4151236;28;20704;-76
2022/04/09 05:52:44;;;;;;;81.35;24.52;;;1.80;99.90;;;;;;4131892;28;20101;-75
2022/04/09 05:54:46;;;;;;;82.57;25.00;;;1.80;99.90;;;;;;4136639;28;20079;-76
2022/04/09 05:56:48;;;;;;;70.63;23.65;;;1.80;99.90;;;;;;4163850;28;20061;-75
2022/04/09 05:58:49;;;;;;;68.57;24.17;;;1.80;99.90;;;;;;4132993;28;20059;-75
2022/04/09 06:01:11;;;;;;;69.38;22.48;;;1.70;99.90;;;;;;4136750;28;20066;-75
2022/04/09 06:03:13;;;;;;;65.53;22.25;;;1.60;99.90;;;;;;4131673;28;20043;-75
2022/04/09 06:05:15;;;;;;;71.03;23.23;;;1.60;99.90;;;;;;4159199;28;20158;-75
2022/04/09 06:07:17;;;;;;;52.55;18.90;;;1.60;99.90;;;;;;4143044;28;20054;-75
2022/04/09 06:09:19;;;;;;;56.97;22.33;;;1.50;99.90;;;;;;4150551;28;20809;-75
2022/04/09 06:11:21;;;;;;;62.67;21.17;;;1.50;99.90;;;;;;4142086;28;20064;-75
2022/04/09 06:13:22;;;;;;;57.97;21.73;;;1.50;99.90;;;;;;4132922;28;20065;-74
2022/04/09 06:15:24;;;;;;;53.53;20.80;;;1.50;99.90;;;;;;4146201;28;20121;-75
2022/04/09 06:17:26;;;;;;;52.65;19.52;;;1.50;99.90;;;;;;4135274;28;20336;-74
2022/04/09 06:19:29;;;;;;;53.03;20.98;;;1.40;99.90;;;;;;4146413;28;20064;-74
2022/04/09 06:21:33;;;;;;;49.58;19.58;;;1.50;99.90;;;;;;4163643;28;20263;-75
2022/04/09 06:23:35;;;;;;;50.35;19.33;;;1.50;99.90;;;;;;4162182;28;20161;-75
2022/04/09 06:25:36;;;;;;;48.33;19.35;;;1.60;99.90;;;;;;4138004;28;20058;-74
2022/04/09 06:27:40;;;;;;;48.38;19.73;;;1.50;99.90;;;;;;4163901;28;20072;-75
2022/04/09 06:29:42;;;;;;;45.92;20.02;;;1.60;99.90;;;;;;4148858;28;20062;-75
2022/04/09 06:31:47;;;;;;;52.13;19.27;;;1.50;99.90;;;;;;4138544;28;20059;-75
2022/04/09 06:33:49;;;;;;;47.22;19.92;;;1.60;99.90;;;;;;4147358;28;20065;-75
2022/04/09 06:35:51;;;;;;;51.58;20.55;;;1.70;99.90;;;;;;4142075;28;20069;-75
2022/04/09 06:37:52;;;;;;;46.30;19.88;;;1.80;99.90;;;;;;4136390;28;20069;-75
2022/04/09 06:39:55;;;;;;;45.13;18.88;;;1.90;99.90;;;;;;4146655;28;20085;-76
2022/04/09 06:41:58;;;;;;;45.42;18.95;;;1.80;99.90;;;;;;4142848;28;20054;-75
2022/04/09 06:43:59;;;;;;;51.67;21.92;;;1.90;99.90;;;;;;4144771;28;20993;-76
2022/04/09 06:46:01;;;;;;;55.10;20.70;;;2.00;99.90;;;;;;4143769;28;20063;-76
2022/04/09 06:48:03;;;;;;;51.63;19.52;;;2.10;99.90;;;;;;4135074;28;20643;-77
2022/04/09 06:50:09;;;;;;;56.03;22.90;;;2.20;99.90;;;;;;4153749;28;20154;-76
2022/04/09 06:52:11;;;;;;;48.88;21.00;;;2.20;99.90;;;;;;4148798;28;20062;-77
2022/04/09 06:54:13;;;;;;;44.15;20.02;;;2.20;99.90;;;;;;4139203;28;20153;-76
2022/04/09 06:56:14;;;;;;;45.28;19.98;;;2.20;99.90;;;;;;4141852;28;20052;-76
2022/04/09 06:58:16;;;;;;;48.10;20.35;;;2.20;99.90;;;;;;4135041;28;20059;-76
2022/04/09 07:00:18;;;;;;;47.97;19.90;;;2.20;99.90;;;;;;4143300;28;20097;-77
2022/04/09 07:02:19;;;;;;;43.30;17.75;;;2.20;99.90;;;;;;4144376;28;20055;-76
2022/04/09 07:04:21;;;;;;;44.60;19.55;;;2.10;99.90;;;;;;4143711;28;20050;-76
2022/04/09 07:06:23;;;;;;;43.78;18.50;;;2.20;99.90;;;;;;4163341;28;20128;-76
2022/04/09 07:08:25;;;;;;;44.67;20.23;;;2.30;99.90;;;;;;4145920;28;20134;-76
2022/04/09 07:10:27;;;;;;;47.95;19.83;;;2.40;99.90;;;;;;4147503;28;20829;-76
2022/04/09 07:12:28;;;;;;;38.33;18.00;;;2.50;99.90;;;;;;4148345;28;20062;-75
2022/04/09 07:14:30;;;;;;;36.97;17.75;;;2.50;99.90;;;;;;4146869;28;20066;-75
2022/04/09 07:16:32;;;;;;;44.42;18.27;;;2.60;99.90;;;;;;4159076;28;20062;-76
2022/04/09 07:18:34;;;;;;;44.58;18.85;;;2.80;99.90;;;;;;4131645;28;20046;-75
2022/04/09 07:20:36;;;;;;;47.90;18.85;;;2.70;99.90;;;;;;4139500;28;20173;-77
2022/04/09 07:22:38;;;;;;;40.15;18.13;;;2.80;99.90;;;;;;4141828;28;22135;-77
2022/04/09 07:24:40;;;;;;;49.50;18.65;;;3.00;99.90;;;;;;4160895;28;20063;-76
2022/04/09 07:26:43;;;;;;;39.90;18.25;;;3.10;99.90;;;;;;4162912;28;20097;-77
2022/04/09 07:28:45;;;;;;;44.15;20.17;;;3.30;99.90;;;;;;4144098;28;20076;-76
2022/04/09 07:30:47;;;;;;;41.42;18.17;;;3.40;99.90;;;;;;4145174;28;20065;-77
2022/04/09 07:32:49;;;;;;;48.28;19.05;;;3.40;99.90;;;;;;4142827;28;20899;-77
2022/04/09 07:34:51;;;;;;;39.50;18.20;;;3.40;99.90;;;;;;4148467;28;20101;-76
2022/04/09 07:36:52;;;;;;;42.40;18.55;;;3.60;99.90;;;;;;4146916;28;20152;-78
2022/04/09 07:38:55;;;;;;;42.65;17.75;;;3.60;99.90;;;;;;4144701;28;20109;-77
2022/04/09 07:40:57;;;;;;;40.10;17.67;;;3.60;99.90;;;;;;4143189;28;20157;-78
2022/04/09 07:43:00;;;;;;;37.72;16.63;;;3.60;99.90;;;;;;4155478;28;20188;-80
2022/04/09 07:45:02;;;;;;;45.33;16.75;;;3.60;99.90;;;;;;4144637;28;20874;-77
2022/04/09 07:47:04;;;;;;;36.40;17.67;;;3.60;99.90;;;;;;4141634;28;20063;-78
2022/04/09 07:49:06;;;;;;;39.42;18.08;;;3.70;99.90;;;;;;4145226;28;20806;-79
2022/04/09 07:51:07;;;;;;;36.72;17.08;;;3.70;99.90;;;;;;4141598;28;20059;-79
2022/04/09 07:53:09;;;;;;;36.63;16.98;;;3.40;99.90;;;;;;4163478;28;20104;-77
2022/04/09 07:55:16;;;;;;;37.58;16.52;;;3.50;99.90;;;;;;4148217;28;20058;-78
2022/04/09 07:57:17;;;;;;;36.55;16.08;;;3.40;99.90;;;;;;4142550;28;20059;-77
2022/04/09 07:59:19;;;;;;;32.67;16.38;;;3.40;99.90;;;;;;4143298;28;20086;-80
2022/04/09 08:01:21;;;;;;;40.63;15.50;;;3.40;99.90;;;;;;4163142;28;20213;-78
2022/04/09 08:03:22;;;;;;;28.42;16.30;;;3.40;99.90;;;;;;4168629;28;20193;-77
2022/04/09 08:05:24;;;;;;;30.17;16.52;;;3.40;99.90;;;;;;4149158;28;20089;-80
2022/04/09 08:07:26;;;;;;;27.17;16.05;;;3.50;99.90;;;;;;4149706;28;20051;-78
2022/04/09 08:09:28;;;;;;;26.27;15.00;;;3.50;99.90;;;;;;4147238;28;20053;-78
2022/04/09 08:11:30;;;;;;;23.05;12.57;;;3.50;99.90;;;;;;4156392;28;20165;-78
2022/04/09 08:13:33;;;;;;;25.08;12.20;;;3.40;99.90;;;;;;4163473;28;20046;-77
2022/04/09 08:15:35;;;;;;;24.85;12.70;;;3.30;99.90;;;;;;4150086;28;20066;-78
2022/04/09 08:17:38;;;;;;;30.17;13.05;;;3.30;99.90;;;;;;4169098;28;20054;-79
2022/04/09 08:19:40;;;;;;;25.70;11.40;;;3.30;99.90;;;;;;4149033;28;20044;-78
2022/04/09 08:21:41;;;;;;;23.38;12.88;;;3.40;99.90;;;;;;4151104;28;20153;-79
2022/04/09 08:23:44;;;;;;;27.90;13.60;;;3.70;99.90;;;;;;4164621;28;20817;-79
2022/04/09 08:25:46;;;;;;;29.10;14.77;;;3.70;99.90;;;;;;4162700;28;20157;-78
2022/04/09 08:27:51;;;;;;;27.40;10.73;;;3.60;99.90;;;;;;4152951;28;20085;-76
2022/04/09 08:29:53;;;;;;;28.48;11.13;;;3.60;99.90;;;;;;4174353;28;21211;-78
2022/04/09 08:31:55;;;;;;;19.60;11.07;;;3.30;99.90;;;;;;4162143;28;20062;-78
2022/04/09 08:33:58;;;;;;;20.42;12.02;;;3.50;99.90;;;;;;4140047;28;20126;-78
2022/04/09 08:36:02;;;;;;;28.50;13.18;;;3.30;99.90;;;;;;4146729;28;20906;-78
2022/04/09 08:38:04;;;;;;;28.95;12.43;;;3.30;99.90;;;;;;4160504;28;20818;-78
2022/04/09 08:40:06;;;;;;;28.77;14.98;;;3.40;99.90;;;;;;4158434;28;20105;-80
2022/04/09 08:42:08;;;;;;;21.83;12.77;;;3.50;99.90;;;;;;4153993;28;20051;-79
2022/04/09 08:44:10;;;;;;;22.13;12.13;;;3.80;99.90;;;;;;4161932;28;20812;-80
2022/04/09 08:46:11;;;;;;;32.13;14.30;;;4.00;99.90;;;;;;4155223;28;20177;-80
2022/04/09 08:48:14;;;;;;;25.25;13.65;;;4.10;99.90;;;;;;4158477;28;20153;-77
2022/04/09 08:50:17;;;;;;;22.55;10.73;;;3.90;99.90;;;;;;4147005;28;20138;-77
2022/04/09 08:52:20;;;;;;;19.20;10.18;;;4.10;99.90;;;;;;4164992;28;20170;-80
2022/04/09 08:54:22;;;;;;;16.10;9.65;;;4.20;99.90;;;;;;4147726;28;20043;-77
2022/04/09 08:56:23;;;;;;;21.17;7.72;;;4.30;99.90;;;;;;4169297;28;20773;-77
2022/04/09 08:58:25;;;;;;;16.83;8.82;;;4.10;99.90;;;;;;4153294;28;20153;-77
2022/04/09 09:00:27;;;;;;;18.90;8.80;;;3.80;99.90;;;;;;4140478;28;20062;-77
2022/04/09 09:02:31;;;;;;;13.70;7.85;;;3.60;99.90;;;;;;4144445;28;20067;-78
2022/04/09 09:04:36;;;;;;;13.20;7.80;;;3.60;99.90;;;;;;4146995;28;20063;-77
2022/04/09 09:06:45;;;;;;;22.27;8.25;;;3.60;99.90;;;;;;4147911;28;20073;-79
2022/04/09 09:08:47;;;;;;;17.48;9.13;;;3.60;99.90;;;;;;4151668;28;20084;-79
2022/04/09 09:10:59;;;;;;;14.15;9.35;;;3.70;99.90;;;;;;4149408;28;20106;-79
2022/04/09 09:13:11;;;;;;;10.73;7.80;;;3.70;99.90;;;;;;4160595;28;21001;-78
2022/04/09 09:15:18;;;;;;;12.82;8.18;;;3.50;99.90;;;;;;4155418;28;20069;-77
2022/04/09 09:17:28;;;;;;;16.38;8.30;;;3.40;99.90;;;;;;4148412;28;20059;-79
2022/04/09 09:19:40;;;;;;;23.65;8.30;;;3.40;99.90;;;;;;4136616;28;20093;-78
2022/04/09 09:21:52;;;;;;;25.42;10.98;;;3.40;99.90;;;;;;4152283;28;20066;-78
2022/04/09 09:24:06;;;;;;;16.27;7.82;;;3.60;99.90;;;;;;4155792;28;20075;-79
2022/04/09 09:26:08;;;;;;;19.08;8.52;;;3.70;99.90;;;;;;4158486;28;20057;-78
2022/04/09 09:28:12;;;;;;;13.85;9.13;;;3.70;99.90;;;;;;4153664;28;20046;-79
2022/04/09 09:30:14;;;;;;;23.15;8.88;;;3.80;99.90;;;;;;4170566;28;20061;-79
2022/04/09 09:32:25;;;;;;;15.93;8.45;;;3.90;99.90;;;;;;4167197;28;20058;-79
2022/04/09 09:34:28;;;;;;;;;;;4.20;99.90;;;;;;4160442;28;20805;-79
2022/04/09 09:36:33;;;;;;;18.40;8.07;;;4.20;99.90;;;;;;4165699;28;19913;-79
2022/04/09 09:38:35;;;;;;;26.55;10.70;;;4.40;99.90;;;;;;4151360;28;20067;-78
2022/04/09 09:40:38;;;;;;;19.77;8.18;;;4.40;99.90;;;;;;4161795;28;20878;-78
2022/04/09 09:42:40;;;;;;;14.90;5.68;;;4.40;99.90;;;;;;4149226;28;20049;-80
2022/04/09 09:44:44;;;;;;;14.73;5.40;;;4.00;99.90;;;;;;4166660;28;20587;-77
2022/04/09 09:46:49;;;;;;;14.00;6.72;;;3.60;99.90;;;;;;4151906;28;20058;-78
2022/04/09 09:48:51;;;;;;;11.38;6.40;;;3.80;99.90;;;;;;4147367;28;20063;-77
2022/04/09 09:50:55;;;;;;;13.90;7.32;;;4.00;99.90;;;;;;4171585;28;20066;-78
2022/04/09 09:53:06;;;;;;;12.05;6.82;;;4.00;99.90;;;;;;4154396;28;20117;-78
2022/04/09 09:55:13;;;;;;;;;;;4.10;99.90;;;;;;4147432;28;20046;-79
2022/04/09 09:57:22;;;;;;;13.18;6.47;;;4.20;99.90;;;;;;4151620;28;19995;-79
2022/04/09 09:59:24;;;;;;;10.10;6.53;;;4.50;99.90;;;;;;4169801;28;20086;-79
2022/04/09 10:01:26;;;;;;;14.07;7.05;;;4.80;99.90;;;;;;4173463;28;20872;-79
2022/04/09 10:03:28;;;;;;;7.60;5.22;;;4.90;99.90;;;;;;4172429;28;20064;-80
2022/04/09 10:05:30;;;;;;;6.38;4.97;;;4.40;99.90;;;;;;4152322;28;20089;-78
2022/04/09 10:07:33;;;;;;;10.90;6.00;;;4.10;99.90;;;;;;4172117;28;20054;-79
2022/04/09 10:09:35;;;;;;;16.05;5.85;;;4.00;99.90;;;;;;4171755;28;20098;-78
2022/04/09 10:11:52;;;;;;;9.80;4.72;;;4.00;99.90;;;;;;4155654;28;20074;-77
2022/04/09 10:13:56;;;;;;;14.98;5.00;;;4.00;99.90;;;;;;4154377;28;20207;-77
2022/04/09 10:15:58;;;;;;;10.00;5.20;;;4.10;99.90;;;;;;4158621;28;20053;-78
2022/04/09 10:18:01;;;;;;;14.50;5.25;;;4.20;99.90;;;;;;4156601;28;20853;-80
2022/04/09 10:20:04;;;;;;;17.17;5.75;;;4.60;99.90;;;;;;4154736;28;20985;-79
2022/04/09 10:22:06;;;;;;;16.38;5.47;;;4.90;99.90;;;;;;4171679;28;20068;-77
2022/04/09 10:24:25;;;;;;;18.23;5.35;;;4.50;99.90;;;;;;4148198;28;20069;-78
2022/04/09 10:26:28;;;;;;;13.70;5.50;;;4.60;99.90;;;;;;4154642;28;20046;-78
2022/04/09 10:28:38;;;;;;;11.90;7.00;;;4.70;99.90;;;;;;4170989;28;20093;-78
2022/04/09 10:30:41;;;;;;;13.02;5.60;;;4.80;99.90;;;;;;4152114;28;20991;-77
2022/04/09 10:32:54;;;;;;;13.18;4.95;;;4.80;99.90;;;;;;4164651;28;20919;-78
2022/04/09 10:35:00;;;;;;;8.93;4.28;;;5.00;99.90;;;;;;4166602;28;20053;-80
2022/04/09 10:37:04;;;;;;;7.07;4.57;;;4.70;99.90;;;;;;4154000;28;20046;-76